sensor_id;sensor_type;location;lat;lon;timestamp;pressure;altitude;pressure_sealevel;temperature;humidity
61035;BME280;46916;40.564;-7.958;2023-10-19T00:00:22;95982.44;;;17.20;100.00
61035;BME280;46916;40.564;-7.958;2023-10-19T00:02:24;95982.44;;;17.20;100.00
61035;BME280;46916;40.564;-7.958;2023-10-19T00:04:28;95977.31;;;17.18;100.00
61035;BME280;46916;40.564;-7.958;2023-10-19T00:06:34;95987.09;;;17.18;100.00
61035;BME280;46916;40.564;-7.958;2023-10-19T00:08:35;95978.75;;;17.14;100.00
61035;BME280;46916;40.564;-7.958;2023-10-19T00:10:44;95978.97;;;17.13;100.00
61035;BME280;46916;40.564;-7.958;2023-10-19T00:12:47;95981.22;;;17.09;100.00
61035;BME280;46916;40.564;-7.958;2023-10-19T00:14:57;95983.84;;;17.09;100.00
61035;BME280;46916;40.564;-7.958;2023-10-19T00:16:58;95973.69;;;17.06;100.00
61035;BME280;46916;40.564;-7.958;2023-10-19T00:19:06;95976.53;;;17.04;100.00
61035;BME280;46916;40.564;-7.958;2023-10-19T00:21:07;95967.81;;;17.04;100.00
61035;BME280;46916;40.564;-7.958;2023-10-19T00:23:26;95951.31;;;17.02;100.00
61035;BME280;46916;40.564;-7.958;2023-10-19T00:25:35;95969.63;;;17.03;100.00
61035;BME280;46916;40.564;-7.958;2023-10-19T00:27:35;95972.91;;;16.99;100.00
61035;BME280;46916;40.564;-7.958;2023-10-19T00:29:36;95960.88;;;16.96;100.00
61035;BME280;46916;40.564;-7.958;2023-10-19T00:31:49;95941.56;;;16.89;100.00
61035;BME280;46916;40.564;-7.958;2023-10-19T00:33:51;95952.13;;;16.89;100.00
61035;BME280;46916;40.564;-7.958;2023-10-19T00:35:55;95954.19;;;16.87;100.00
61035;BME280;46916;40.564;-7.958;2023-10-19T00:38:01;95942.19;;;16.84;100.00
61035;BME280;46916;40.564;-7.958;2023-10-19T00:40:20;95954.38;;;16.86;100.00
61035;BME280;46916;40.564;-7.958;2023-10-19T00:42:34;95939.75;;;16.83;100.00
61035;BME280;46916;40.564;-7.958;2023-10-19T00:44:39;95962.75;;;16.82;100.00
61035;BME280;46916;40.564;-7.958;2023-10-19T00:46:42;95957.63;;;16.81;100.00
61035;BME280;46916;40.564;-7.958;2023-10-19T00:48:52;95931.41;;;16.79;100.00
61035;BME280;46916;40.564;-7.958;2023-10-19T00:50:54;95920.44;;;16.76;100.00
61035;BME280;46916;40.564;-7.958;2023-10-19T00:53:07;95912.91;;;16.73;100.00
61035;BME280;46916;40.564;-7.958;2023-10-19T00:55:10;95899.06;;;16.71;100.00
61035;BME280;46916;40.564;-7.958;2023-10-19T00:57:15;95884.22;;;16.70;100.00
61035;BME280;46916;40.564;-7.958;2023-10-19T00:59:20;95900.09;;;16.70;100.00
61035;BME280;46916;40.564;-7.958;2023-10-19T01:01:27;95908.63;;;16.72;100.00
61035;BME280;46916;40.564;-7.958;2023-10-19T01:03:29;95900.50;;;16.73;100.00
61035;BME280;46916;40.564;-7.958;2023-10-19T01:05:32;95902.16;;;16.74;100.00
61035;BME280;46916;40.564;-7.958;2023-10-19T01:07:36;95905.38;;;16.76;100.00
61035;BME280;46916;40.564;-7.958;2023-10-19T01:09:42;95896.25;;;16.79;100.00
61035;BME280;46916;40.564;-7.958;2023-10-19T01:11:44;95894.41;;;16.79;100.00
61035;BME280;46916;40.564;-7.958;2023-10-19T01:13:47;95875.91;;;16.79;100.00
61035;BME280;46916;40.564;-7.958;2023-10-19T01:15:48;95877.91;;;16.77;100.00
61035;BME280;46916;40.564;-7.958;2023-10-19T01:17:52;95875.72;;;16.74;100.00
61035;BME280;46916;40.564;-7.958;2023-10-19T01:19:56;95882.84;;;16.74;100.00
61035;BME280;46916;40.564;-7.958;2023-10-19T01:21:59;95869.78;;;16.72;100.00
61035;BME280;46916;40.564;-7.958;2023-10-19T01:24:07;95863.91;;;16.70;100.00
61035;BME280;46916;40.564;-7.958;2023-10-19T01:26:09;95870.81;;;16.71;100.00
61035;BME280;46916;40.564;-7.958;2023-10-19T01:28:10;95871.59;;;16.72;100.00
61035;BME280;46916;40.564;-7.958;2023-10-19T01:30:14;95876.09;;;16.71;100.00
61035;BME280;46916;40.564;-7.958;2023-10-19T01:32:17;95874.91;;;16.74;100.00
61035;BME280;46916;40.564;-7.958;2023-10-19T01:34:18;95868.78;;;16.73;100.00
61035;BME280;46916;40.564;-7.958;2023-10-19T01:36:23;95868.59;;;16.75;100.00
61035;BME280;46916;40.564;-7.958;2023-10-19T01:38:23;95874.47;;;16.77;100.00
61035;BME280;46916;40.564;-7.958;2023-10-19T01:40:25;95882.22;;;16.78;100.00
61035;BME280;46916;40.564;-7.958;2023-10-19T01:42:30;95872.84;;;16.82;100.00
61035;BME280;46916;40.564;-7.958;2023-10-19T01:44:31;95872.03;;;16.82;100.00
61035;BME280;46916;40.564;-7.958;2023-10-19T01:46:34;95883.22;;;16.84;100.00
61035;BME280;46916;40.564;-7.958;2023-10-19T01:48:35;95873.66;;;16.83;100.00
61035;BME280;46916;40.564;-7.958;2023-10-19T01:50:37;95864.91;;;16.82;100.00
61035;BME280;46916;40.564;-7.958;2023-10-19T02:22:57;95813.03;;;16.81;100.00
61035;BME280;46916;40.564;-7.958;2023-10-19T02:24:58;95817.09;;;16.84;100.00
61035;BME280;46916;40.564;-7.958;2023-10-19T02:26:59;95819.53;;;16.86;100.00
61035;BME280;46916;40.564;-7.958;2023-10-19T02:29:02;95818.09;;;16.90;100.00
61035;BME280;46916;40.564;-7.958;2023-10-19T02:31:07;95813.22;;;16.93;100.00
61035;BME280;46916;40.564;-7.958;2023-10-19T02:33:14;95810.16;;;16.96;100.00
61035;BME280;46916;40.564;-7.958;2023-10-19T02:35:16;95799.97;;;17.00;100.00
61035;BME280;46916;40.564;-7.958;2023-10-19T02:37:16;95795.28;;;17.02;100.00
61035;BME280;46916;40.564;-7.958;2023-10-19T02:39:17;95794.47;;;17.01;100.00
61035;BME280;46916;40.564;-7.958;2023-10-19T02:41:18;95793.47;;;17.02;100.00
61035;BME280;46916;40.564;-7.958;2023-10-19T02:43:21;95797.91;;;17.02;100.00
61035;BME280;46916;40.564;-7.958;2023-10-19T02:45:24;95768.00;;;17.01;100.00
61035;BME280;46916;40.564;-7.958;2023-10-19T02:47:25;95764.56;;;17.01;100.00
61035;BME280;46916;40.564;-7.958;2023-10-19T02:49:29;95758.47;;;17.00;100.00
61035;BME280;46916;40.564;-7.958;2023-10-19T02:51:30;95745.03;;;17.02;100.00
61035;BME280;46916;40.564;-7.958;2023-10-19T02:53:31;95718.56;;;17.02;100.00
61035;BME280;46916;40.564;-7.958;2023-10-19T02:55:32;95688.69;;;17.01;100.00
61035;BME280;46916;40.564;-7.958;2023-10-19T02:57:33;95665.09;;;17.00;100.00
61035;BME280;46916;40.564;-7.958;2023-10-19T02:59:33;95661.44;;;17.01;100.00
61035;BME280;46916;40.564;-7.958;2023-10-19T03:01:34;95671.19;;;17.00;100.00
61035;BME280;46916;40.564;-7.958;2023-10-19T03:03:35;95669.16;;;17.02;100.00
61035;BME280;46916;40.564;-7.958;2023-10-19T03:05:36;95660.41;;;17.02;100.00
61035;BME280;46916;40.564;-7.958;2023-10-19T03:07:36;95670.16;;;17.01;100.00
61035;BME280;46916;40.564;-7.958;2023-10-19T03:09:39;95662.22;;;17.01;100.00
61035;BME280;46916;40.564;-7.958;2023-10-19T03:11:40;95633.94;;;17.02;100.00
61035;BME280;46916;40.564;-7.958;2023-10-19T03:13:41;95623.81;;;16.99;100.00
61035;BME280;46916;40.564;-7.958;2023-10-19T03:15:44;95620.16;;;17.00;100.00
61035;BME280;46916;40.564;-7.958;2023-10-19T03:17:45;95608.53;;;17.01;100.00
61035;BME280;46916;40.564;-7.958;2023-10-19T03:19:46;95615.09;;;16.98;100.00
61035;BME280;46916;40.564;-7.958;2023-10-19T03:21:46;95616.09;;;16.97;100.00
61035;BME280;46916;40.564;-7.958;2023-10-19T03:23:50;95632.75;;;16.98;100.00
61035;BME280;46916;40.564;-7.958;2023-10-19T03:25:55;95634.41;;;16.99;100.00
61035;BME280;46916;40.564;-7.958;2023-10-19T03:28:02;95622.78;;;17.00;100.00
61035;BME280;46916;40.564;-7.958;2023-10-19T03:30:11;95582.31;;;16.99;100.00
61035;BME280;46916;40.564;-7.958;2023-10-19T03:32:16;95590.03;;;17.01;100.00
61035;BME280;46916;40.564;-7.958;2023-10-19T03:34:16;95589.81;;;17.02;100.00
61035;BME280;46916;40.564;-7.958;2023-10-19T03:36:17;95571.31;;;17.02;100.00
61035;BME280;46916;40.564;-7.958;2023-10-19T03:38:18;95561.53;;;17.03;100.00
61035;BME280;46916;40.564;-7.958;2023-10-19T03:40:21;95551.16;;;17.01;100.00
61035;BME280;46916;40.564;-7.958;2023-10-19T03:42:33;95561.97;;;17.00;100.00
61035;BME280;46916;40.564;-7.958;2023-10-19T03:44:40;95570.94;;;16.99;100.00
61035;BME280;46916;40.564;-7.958;2023-10-19T03:46:44;95570.53;;;16.95;100.00
61035;BME280;46916;40.564;-7.958;2023-10-19T03:48:57;95597.00;;;16.95;100.00
61035;BME280;46916;40.564;-7.958;2023-10-19T03:50:59;95599.63;;;16.95;100.00
61035;BME280;46916;40.564;-7.958;2023-10-19T03:53:02;95589.06;;;16.95;100.00
61035;BME280;46916;40.564;-7.958;2023-10-19T03:55:05;95596.19;;;16.95;100.00
61035;BME280;46916;40.564;-7.958;2023-10-19T03:57:14;95598.59;;;16.96;100.00
61035;BME280;46916;40.564;-7.958;2023-10-19T03:59:23;95611.25;;;16.94;100.00
61035;BME280;46916;40.564;-7.958;2023-10-19T04:01:29;95623.44;;;16.95;100.00
61035;BME280;46916;40.564;-7.958;2023-10-19T04:03:32;95614.47;;;16.96;100.00
61035;BME280;46916;40.564;-7.958;2023-10-19T04:05:32;95609.19;;;16.96;100.00
61035;BME280;46916;40.564;-7.958;2023-10-19T04:07:38;95602.84;;;16.97;100.00
61035;BME280;46916;40.564;-7.958;2023-10-19T04:09:39;95600.22;;;16.97;100.00
61035;BME280;46916;40.564;-7.958;2023-10-19T04:11:57;95594.94;;;16.97;100.00
61035;BME280;46916;40.564;-7.958;2023-10-19T04:14:01;95586.41;;;16.95;100.00
61035;BME280;46916;40.564;-7.958;2023-10-19T04:16:04;95577.03;;;16.99;100.00
61035;BME280;46916;40.564;-7.958;2023-10-19T04:18:10;95566.88;;;16.96;100.00
61035;BME280;46916;40.564;-7.958;2023-10-19T04:20:13;95548.59;;;16.95;100.00
61035;BME280;46916;40.564;-7.958;2023-10-19T04:22:28;95541.06;;;16.92;100.00
61035;BME280;46916;40.564;-7.958;2023-10-19T04:24:31;95552.69;;;16.91;100.00
61035;BME280;46916;40.564;-7.958;2023-10-19T04:26:34;95550.22;;;16.89;100.00
61035;BME280;46916;40.564;-7.958;2023-10-19T04:28:40;95543.56;;;16.87;100.00
61035;BME280;46916;40.564;-7.958;2023-10-19T04:30:50;95531.16;;;16.87;100.00
61035;BME280;46916;40.564;-7.958;2023-10-19T04:32:51;95513.44;;;16.88;100.00
61035;BME280;46916;40.564;-7.958;2023-10-19T04:34:53;95522.19;;;16.88;100.00
61035;BME280;46916;40.564;-7.958;2023-10-19T04:36:53;95522.59;;;16.85;100.00
61035;BME280;46916;40.564;-7.958;2023-10-19T04:38:54;95517.31;;;16.85;100.00
61035;BME280;46916;40.564;-7.958;2023-10-19T04:41:03;95523.63;;;16.84;100.00
61035;BME280;46916;40.564;-7.958;2023-10-19T04:43:07;95503.28;;;16.84;100.00
61035;BME280;46916;40.564;-7.958;2023-10-19T04:45:08;95505.75;;;16.86;100.00
61035;BME280;46916;40.564;-7.958;2023-10-19T04:47:09;95505.13;;;16.84;100.00
61035;BME280;46916;40.564;-7.958;2023-10-19T04:49:09;95495.59;;;16.83;100.00
61035;BME280;46916;40.564;-7.958;2023-10-19T04:51:10;95487.66;;;16.83;100.00
61035;BME280;46916;40.564;-7.958;2023-10-19T04:53:11;95490.50;;;16.81;100.00
61035;BME280;46916;40.564;-7.958;2023-10-19T04:55:12;95493.38;;;16.80;100.00
61035;BME280;46916;40.564;-7.958;2023-10-19T04:57:13;95472.22;;;16.80;100.00
61035;BME280;46916;40.564;-7.958;2023-10-19T04:59:13;95459.00;;;16.80;100.00
61035;BME280;46916;40.564;-7.958;2023-10-19T05:01:14;95469.34;;;16.81;100.00
61035;BME280;46916;40.564;-7.958;2023-10-19T05:03:15;95439.75;;;16.73;100.00
61035;BME280;46916;40.564;-7.958;2023-10-19T05:05:19;95436.50;;;16.71;100.00
61035;BME280;46916;40.564;-7.958;2023-10-19T05:07:19;95436.09;;;16.67;100.00
61035;BME280;46916;40.564;-7.958;2023-10-19T05:09:20;95441.81;;;16.64;100.00
61035;BME280;46916;40.564;-7.958;2023-10-19T05:11:21;95435.72;;;16.64;100.00
61035;BME280;46916;40.564;-7.958;2023-10-19T05:13:26;95428.59;;;16.64;100.00
61035;BME280;46916;40.564;-7.958;2023-10-19T05:15:27;95425.16;;;16.64;100.00
61035;BME280;46916;40.564;-7.958;2023-10-19T05:17:27;95416.41;;;16.63;100.00
61035;BME280;46916;40.564;-7.958;2023-10-19T05:19:28;95435.56;;;16.58;100.00
61035;BME280;46916;40.564;-7.958;2023-10-19T05:21:29;95466.25;;;16.59;100.00
61035;BME280;46916;40.564;-7.958;2023-10-19T05:23:30;95473.97;;;16.61;100.00
61035;BME280;46916;40.564;-7.958;2023-10-19T05:25:31;95454.06;;;16.58;100.00
61035;BME280;46916;40.564;-7.958;2023-10-19T05:27:32;95427.56;;;16.65;100.00
61035;BME280;46916;40.564;-7.958;2023-10-19T05:29:32;95425.16;;;16.64;100.00
61035;BME280;46916;40.564;-7.958;2023-10-19T05:31:33;95456.44;;;16.67;100.00
61035;BME280;46916;40.564;-7.958;2023-10-19T05:33:35;95465.41;;;16.66;100.00
61035;BME280;46916;40.564;-7.958;2023-10-19T05:35:36;95473.34;;;16.66;100.00
61035;BME280;46916;40.564;-7.958;2023-10-19T05:37:40;95473.50;;;16.71;100.00
61035;BME280;46916;40.564;-7.958;2023-10-19T05:39:42;95478.41;;;16.67;100.00
61035;BME280;46916;40.564;-7.958;2023-10-19T05:41:42;95482.88;;;16.67;100.00
61035;BME280;46916;40.564;-7.958;2023-10-19T05:43:43;95453.56;;;16.68;100.00
61035;BME280;46916;40.564;-7.958;2023-10-19T05:45:44;95452.78;;;16.68;100.00
61035;BME280;46916;40.564;-7.958;2023-10-19T05:47:45;95427.78;;;16.64;100.00
61035;BME280;46916;40.564;-7.958;2023-10-19T05:49:46;95435.16;;;16.62;100.00
61035;BME280;46916;40.564;-7.958;2023-10-19T05:51:46;95428.41;;;16.66;100.00
61035;BME280;46916;40.564;-7.958;2023-10-19T05:53:47;95423.13;;;16.66;100.00
61035;BME280;46916;40.564;-7.958;2023-10-19T05:55:49;95410.34;;;16.63;100.00
61035;BME280;46916;40.564;-7.958;2023-10-19T05:57:49;95409.31;;;16.64;100.00
61035;BME280;46916;40.564;-7.958;2023-10-19T05:59:50;95380.22;;;16.64;100.00
61035;BME280;46916;40.564;-7.958;2023-10-19T06:01:51;95371.13;;;16.59;100.00
61035;BME280;46916;40.564;-7.958;2023-10-19T06:03:52;95370.31;;;16.59;100.00
61035;BME280;46916;40.564;-7.958;2023-10-19T06:05:52;95353.03;;;16.56;100.00
61035;BME280;46916;40.564;-7.958;2023-10-19T06:07:56;95346.56;;;16.52;100.00
61035;BME280;46916;40.564;-7.958;2023-10-19T06:10:00;95341.28;;;16.52;100.00
61035;BME280;46916;40.564;-7.958;2023-10-19T06:12:04;95314.72;;;16.47;100.00
61035;BME280;46916;40.564;-7.958;2023-10-19T06:14:05;95312.69;;;16.49;100.00
61035;BME280;46916;40.564;-7.958;2023-10-19T06:16:07;95311.28;;;16.47;100.00
61035;BME280;46916;40.564;-7.958;2023-10-19T06:18:07;95301.13;;;16.44;100.00
61035;BME280;46916;40.564;-7.958;2023-10-19T06:20:09;95307.84;;;16.46;100.00
61035;BME280;46916;40.564;-7.958;2023-10-19T06:22:29;95332.66;;;16.45;100.00
61035;BME280;46916;40.564;-7.958;2023-10-19T06:24:30;95316.78;;;16.45;100.00
61035;BME280;46916;40.564;-7.958;2023-10-19T06:26:30;95316.56;;;16.47;100.00
61035;BME280;46916;40.564;-7.958;2023-10-19T06:28:31;95314.72;;;16.47;100.00
61035;BME280;46916;40.564;-7.958;2023-10-19T06:30:34;95311.03;;;16.48;100.00
61035;BME280;46916;40.564;-7.958;2023-10-19T06:32:35;95302.13;;;16.49;100.00
61035;BME280;46916;40.564;-7.958;2023-10-19T06:34:35;95305.75;;;16.48;100.00
61035;BME280;46916;40.564;-7.958;2023-10-19T06:36:37;95309.44;;;16.47;100.00
61035;BME280;46916;40.564;-7.958;2023-10-19T06:38:38;95291.97;;;16.46;100.00
61035;BME280;46916;40.564;-7.958;2023-10-19T06:40:38;95298.28;;;16.45;100.00
61035;BME280;46916;40.564;-7.958;2023-10-19T06:42:39;95285.88;;;16.46;100.00
61035;BME280;46916;40.564;-7.958;2023-10-19T06:44:43;95272.88;;;16.44;100.00
61035;BME280;46916;40.564;-7.958;2023-10-19T06:46:43;95271.03;;;16.45;100.00
61035;BME280;46916;40.564;-7.958;2023-10-19T06:48:44;95257.63;;;16.46;100.00
61035;BME280;46916;40.564;-7.958;2023-10-19T06:50:45;95240.38;;;16.44;100.00
61035;BME280;46916;40.564;-7.958;2023-10-19T06:52:46;95244.63;;;16.45;100.00
61035;BME280;46916;40.564;-7.958;2023-10-19T06:54:48;95238.34;;;16.46;100.00
61035;BME280;46916;40.564;-7.958;2023-10-19T06:56:48;95215.56;;;16.45;100.00
61035;BME280;46916;40.564;-7.958;2023-10-19T06:58:49;95207.63;;;16.45;100.00
61035;BME280;46916;40.564;-7.958;2023-10-19T07:00:50;95197.06;;;16.45;100.00
61035;BME280;46916;40.564;-7.958;2023-10-19T07:02:57;95213.97;;;16.44;100.00
61035;BME280;46916;40.564;-7.958;2023-10-19T07:05:02;95203.38;;;16.44;100.00
61035;BME280;46916;40.564;-7.958;2023-10-19T07:07:03;95204.78;;;16.46;100.00
61035;BME280;46916;40.564;-7.958;2023-10-19T07:09:04;95205.59;;;16.47;100.00
61035;BME280;46916;40.564;-7.958;2023-10-19T07:11:06;95197.44;;;16.48;100.00
61035;BME280;46916;40.564;-7.958;2023-10-19T07:13:07;95183.41;;;16.48;100.00
61035;BME280;46916;40.564;-7.958;2023-10-19T07:15:09;95176.31;;;16.48;100.00
61035;BME280;46916;40.564;-7.958;2023-10-19T07:17:14;95185.03;;;16.49;100.00
61035;BME280;46916;40.564;-7.958;2023-10-19T07:19:14;95169.41;;;16.47;100.00
61035;BME280;46916;40.564;-7.958;2023-10-19T07:21:15;95176.53;;;16.47;100.00
61035;BME280;46916;40.564;-7.958;2023-10-19T07:23:17;95167.56;;;16.48;100.00
61035;BME280;46916;40.564;-7.958;2023-10-19T07:25:19;95183.22;;;16.49;100.00
61035;BME280;46916;40.564;-7.958;2023-10-19T07:27:21;95181.16;;;16.51;100.00
61035;BME280;46916;40.564;-7.958;2023-10-19T07:29:23;95203.69;;;16.54;100.00
61035;BME280;46916;40.564;-7.958;2023-10-19T07:31:23;95206.91;;;16.56;100.00
61035;BME280;46916;40.564;-7.958;2023-10-19T07:33:24;95207.72;;;16.56;100.00
61035;BME280;46916;40.564;-7.958;2023-10-19T07:35:27;95219.09;;;16.57;100.00
61035;BME280;46916;40.564;-7.958;2023-10-19T07:37:28;95220.72;;;16.58;100.00
61035;BME280;46916;40.564;-7.958;2023-10-19T07:39:29;95225.78;;;16.59;100.00
61035;BME280;46916;40.564;-7.958;2023-10-19T07:41:30;95213.72;;;16.64;100.00
61035;BME280;46916;40.564;-7.958;2023-10-19T07:43:36;95225.09;;;16.64;100.00
61035;BME280;46916;40.564;-7.958;2023-10-19T07:45:37;95223.06;;;16.66;100.00
61035;BME280;46916;40.564;-7.958;2023-10-19T07:47:39;95214.88;;;16.74;100.00
61035;BME280;46916;40.564;-7.958;2023-10-19T07:49:42;95204.44;;;16.79;100.00
61035;BME280;46916;40.564;-7.958;2023-10-19T07:51:47;95205.38;;;16.85;100.00
61035;BME280;46916;40.564;-7.958;2023-10-19T07:53:48;95219.97;;;16.88;100.00
61035;BME280;46916;40.564;-7.958;2023-10-19T07:55:48;95219.19;;;16.87;100.00
61035;BME280;46916;40.564;-7.958;2023-10-19T07:57:50;95226.44;;;16.92;100.00
61035;BME280;46916;40.564;-7.958;2023-10-19T07:59:51;95225.63;;;16.91;100.00
61035;BME280;46916;40.564;-7.958;2023-10-19T08:01:52;95219.31;;;16.92;100.00
61035;BME280;46916;40.564;-7.958;2023-10-19T08:03:53;95208.16;;;16.90;100.00
61035;BME280;46916;40.564;-7.958;2023-10-19T08:05:53;95211.81;;;16.89;100.00
61035;BME280;46916;40.564;-7.958;2023-10-19T08:07:54;95204.13;;;16.88;100.00
61035;BME280;46916;40.564;-7.958;2023-10-19T08:09:57;95218.75;;;16.90;100.00
61035;BME280;46916;40.564;-7.958;2023-10-19T08:12:00;95212.63;;;16.90;100.00
61035;BME280;46916;40.564;-7.958;2023-10-19T08:14:03;95196.75;;;16.90;100.00
61035;BME280;46916;40.564;-7.958;2023-10-19T08:16:05;95209.41;;;16.88;100.00
61035;BME280;46916;40.564;-7.958;2023-10-19T08:18:07;95214.69;;;16.88;100.00
61035;BME280;46916;40.564;-7.958;2023-10-19T08:20:10;95217.56;;;16.86;100.00
61035;BME280;46916;40.564;-7.958;2023-10-19T08:22:16;95205.66;;;16.77;100.00
61035;BME280;46916;40.564;-7.958;2023-10-19T08:24:17;95212.25;;;16.68;100.00
61035;BME280;46916;40.564;-7.958;2023-10-19T08:26:21;95206.03;;;16.62;100.00
61035;BME280;46916;40.564;-7.958;2023-10-19T08:28:22;95187.97;;;16.59;100.00
61035;BME280;46916;40.564;-7.958;2023-10-19T08:30:23;95198.31;;;16.60;100.00
61035;BME280;46916;40.564;-7.958;2023-10-19T08:32:24;95192.03;;;16.62;100.00
61035;BME280;46916;40.564;-7.958;2023-10-19T08:34:27;95173.16;;;16.58;100.00
61035;BME280;46916;40.564;-7.958;2023-10-19T08:36:29;95171.97;;;16.54;100.00
61035;BME280;46916;40.564;-7.958;2023-10-19T08:38:30;95165.44;;;16.56;100.00
61035;BME280;46916;40.564;-7.958;2023-10-19T08:40:31;95161.19;;;16.55;100.00
61035;BME280;46916;40.564;-7.958;2023-10-19T08:42:32;95139.25;;;16.55;100.00
61035;BME280;46916;40.564;-7.958;2023-10-19T08:44:32;95140.19;;;16.60;100.00
61035;BME280;46916;40.564;-7.958;2023-10-19T08:46:33;95130.66;;;16.59;100.00
61035;BME280;46916;40.564;-7.958;2023-10-19T08:48:35;95123.31;;;16.62;100.00
61035;BME280;46916;40.564;-7.958;2023-10-19T08:50:37;95133.41;;;16.65;100.00
61035;BME280;46916;40.564;-7.958;2023-10-19T08:52:38;95125.03;;;16.68;100.00
61035;BME280;46916;40.564;-7.958;2023-10-19T08:54:39;95117.13;;;16.68;100.00
61035;BME280;46916;40.564;-7.958;2023-10-19T08:56:40;95111.03;;;16.67;100.00
61035;BME280;46916;40.564;-7.958;2023-10-19T08:58:45;95105.97;;;16.66;100.00
61035;BME280;46916;40.564;-7.958;2023-10-19T09:00:48;95110.00;;;16.68;100.00
61035;BME280;46916;40.564;-7.958;2023-10-19T09:02:49;95102.06;;;16.68;100.00
61035;BME280;46916;40.564;-7.958;2023-10-19T09:04:50;95105.50;;;16.69;100.00
61035;BME280;46916;40.564;-7.958;2023-10-19T09:06:53;95112.78;;;16.73;100.00
61035;BME280;46916;40.564;-7.958;2023-10-19T09:08:55;95125.56;;;16.76;100.00
61035;BME280;46916;40.564;-7.958;2023-10-19T09:10:58;95119.16;;;16.84;100.00
61035;BME280;46916;40.564;-7.958;2023-10-19T09:13:00;95118.28;;;16.90;100.00
61035;BME280;46916;40.564;-7.958;2023-10-19T09:15:02;95111.28;;;16.96;100.00
61035;BME280;46916;40.564;-7.958;2023-10-19T09:17:03;95119.78;;;16.98;100.00
61035;BME280;46916;40.564;-7.958;2023-10-19T09:19:05;95122.78;;;17.01;100.00
61035;BME280;46916;40.564;-7.958;2023-10-19T09:21:07;95114.03;;;17.01;100.00
61035;BME280;46916;40.564;-7.958;2023-10-19T09:23:12;95105.91;;;17.02;100.00
61035;BME280;46916;40.564;-7.958;2023-10-19T09:25:14;95114.63;;;17.03;100.00
61035;BME280;46916;40.564;-7.958;2023-10-19T09:27:18;95118.66;;;17.05;100.00
61035;BME280;46916;40.564;-7.958;2023-10-19T09:29:19;95129.38;;;17.11;100.00
61035;BME280;46916;40.564;-7.958;2023-10-19T09:31:20;95113.50;;;17.11;100.00
61035;BME280;46916;40.564;-7.958;2023-10-19T09:33:22;95103.72;;;17.11;100.00
61035;BME280;46916;40.564;-7.958;2023-10-19T09:35:24;95073.47;;;17.07;100.00
61035;BME280;46916;40.564;-7.958;2023-10-19T09:37:28;95068.16;;;16.95;100.00
61035;BME280;46916;40.564;-7.958;2023-10-19T09:39:30;95080.56;;;16.83;100.00
61035;BME280;46916;40.564;-7.958;2023-10-19T09:41:34;95081.00;;;16.80;100.00
61035;BME280;46916;40.564;-7.958;2023-10-19T09:43:45;95114.56;;;16.79;100.00
61035;BME280;46916;40.564;-7.958;2023-10-19T09:45:49;95113.88;;;16.84;100.00
61035;BME280;46916;40.564;-7.958;2023-10-19T09:47:54;95107.91;;;16.89;100.00
61035;BME280;46916;40.564;-7.958;2023-10-19T09:49:55;95116.06;;;16.87;100.00
61035;BME280;46916;40.564;-7.958;2023-10-19T09:51:56;95120.69;;;16.92;100.00
61035;BME280;46916;40.564;-7.958;2023-10-19T09:54:20;95117.81;;;16.93;100.00
61035;BME280;46916;40.564;-7.958;2023-10-19T09:56:46;95127.00;;;16.91;100.00
61035;BME280;46916;40.564;-7.958;2023-10-19T09:59:56;95145.72;;;16.89;100.00
61035;BME280;46916;40.564;-7.958;2023-10-19T10:04:33;95173.63;;;16.85;100.00
61035;BME280;46916;40.564;-7.958;2023-10-19T10:08:51;95145.59;;;16.84;100.00
61035;BME280;46916;40.564;-7.958;2023-10-19T10:10:53;95141.91;;;16.85;100.00
61035;BME280;46916;40.564;-7.958;2023-10-19T10:12:53;95134.34;;;16.89;100.00
61035;BME280;46916;40.564;-7.958;2023-10-19T10:15:01;95119.44;;;16.94;100.00
61035;BME280;46916;40.564;-7.958;2023-10-19T10:17:04;95091.38;;;16.93;100.00
61035;BME280;46916;40.564;-7.958;2023-10-19T10:19:20;95047.91;;;16.89;100.00
61035;BME280;46916;40.564;-7.958;2023-10-19T10:21:22;95014.34;;;16.78;100.00
61035;BME280;46916;40.564;-7.958;2023-10-19T10:23:24;95001.44;;;16.70;100.00
61035;BME280;46916;40.564;-7.958;2023-10-19T10:25:27;94980.03;;;16.59;100.00
61035;BME280;46916;40.564;-7.958;2023-10-19T10:27:29;94960.25;;;16.50;100.00
61035;BME280;46916;40.564;-7.958;2023-10-19T10:29:30;94946.34;;;16.43;100.00
61035;BME280;46916;40.564;-7.958;2023-10-19T10:31:34;94917.03;;;16.33;100.00
61035;BME280;46916;40.564;-7.958;2023-10-19T10:33:45;94898.97;;;16.18;100.00
61035;BME280;46916;40.564;-7.958;2023-10-19T10:37:53;94872.53;;;16.06;100.00
61035;BME280;46916;40.564;-7.958;2023-10-19T10:39:59;94851.66;;;16.05;100.00
61035;BME280;46916;40.564;-7.958;2023-10-19T10:42:01;94844.41;;;16.00;100.00
61035;BME280;46916;40.564;-7.958;2023-10-19T10:44:03;94870.81;;;16.00;100.00
61035;BME280;46916;40.564;-7.958;2023-10-19T10:46:05;94876.88;;;16.01;100.00
61035;BME280;46916;40.564;-7.958;2023-10-19T10:48:18;94912.69;;;15.97;100.00
61035;BME280;46916;40.564;-7.958;2023-10-19T10:50:19;94949.41;;;15.98;100.00
61035;BME280;46916;40.564;-7.958;2023-10-19T10:52:34;94939.22;;;16.02;100.00
61035;BME280;46916;40.564;-7.958;2023-10-19T10:54:35;94940.59;;;16.04;100.00
61035;BME280;46916;40.564;-7.958;2023-10-19T10:56:40;94975.84;;;16.10;100.00
61035;BME280;46916;40.564;-7.958;2023-10-19T10:58:41;94985.06;;;16.19;100.00
61035;BME280;46916;40.564;-7.958;2023-10-19T11:00:46;94985.19;;;16.24;100.00
61035;BME280;46916;40.564;-7.958;2023-10-19T11:05:02;95001.25;;;16.41;100.00
61035;BME280;46916;40.564;-7.958;2023-10-19T11:07:03;94986.69;;;16.50;100.00
61035;BME280;46916;40.564;-7.958;2023-10-19T11:09:09;94982.53;;;16.54;100.00
61035;BME280;46916;40.564;-7.958;2023-10-19T11:11:11;95022.19;;;16.54;100.00
61035;BME280;46916;40.564;-7.958;2023-10-19T11:13:16;95045.03;;;16.60;100.00
61035;BME280;46916;40.564;-7.958;2023-10-19T11:15:20;95047.13;;;16.58;100.00